Airfield :
LOGIN :

Register | Disclaimer

   EN    FR    IT 

 










Legend :    VFR   Marginal VFR   IFR   Intensive IFR   Very Intensive IFR
Visi :
Ceiling :
>= 8 km
>= 3000ft
5 to 8 km
1000 to 3000 ft
1500m to 5 km
500 to 1000 ft
800 to 1500m
200 to 500 ft
< 800m
< 200 ft
Symbols :   Thunderstorms  Fog  Heavy snow  Heavy precipitations  Wind > 20 kt
SIGMETs :     Misc.  Thunderstorms  Icing  Turbulence  Mountain Waves  Volcanic Ashes







- Airport Elevation : 33 ft
- IATA code : MHZ


EGUN - RAF Mildenhall

CURRENT METAR :
  • 191029Z 28003KT 9999 -RA SCT009 BKN130 BKN180 BKN200 13/13 A2982 RMK AO2A RAB15E18RAB22E25RAB26 SLP101 $

EXPIRED METARs :
  • 191018Z 00000KT 9999 OVC008 13/13 A2982 RMK AO2A RAB15E18 CIG 007 RWY29 SLP101 $
  • 191001Z 33003KT 8000 BR OVC007 12/12 A2982 RMK AO2A SLPNO $
  • 190946Z 30003KT 8000 BR OVC006 12/12 A2982 RMK AO2A SLP101 $
  • 190911Z 29003KT 6000 BR OVC005 12/12 A2982 RMK AO2A SLP101 $
  • 190856Z 31004KT 6000 BR OVC004 11/11 A2982 RMK AO2A SLP101 T01100110 .
  • 190843Z 32003KT 6000 BR OVC004 11/11 A2982 RMK AO2A CIG 002V004 CIG 003 RWY29 SLP101 $
  • 190828Z 00000KT 5000 BR OVC002 10/10 A2981 RMK AO2A SLP098 $
  • 190818Z 00000KT 3600 BR OVC002 10/10 A2981 RMK AO2A VIS 2000V3600 VIS 2600 RWY29 CIG 001 RWY29 SLP098 $
  • 190756Z 00000KT 1000 R11/0900V1500 FG OVC002 10/10 A2981 RMK AO2A CIG 001 RWY29 SLP098 T00970097 $
  • 190750Z 00000KT 0600 R11/0700V1000 FG OVC002 10/10 A2981 RMK AO2A CIG 001 RWY29 SLP098 $

TAF AMD TAF EGUN
Valid from the 19 at 09:00 until the 20 at 10:00 UTC


190924Z 1909/2010 VRB06KT 5000 BR OVC005 QNH2979INS
TEMPO 1909/1911 SCT005 BKN030
BECMG 1910/1911 05006KT 9999 NSW BKN030 QNH2979INS
TEMPO 1912/1919 9000 -SHRA
BECMG 2000/2001 VRB06KT 5000 BR SCT020 QNH2981INS
BECMG 2002/2003 VRB06KT 1600 BR BKN001 QNH2982INS TX17/1912Z TN012/1909Z
No reported NOTAMs for that airfield.



MET'MAP, your aeronautical weather chart ! - Copyright ORBIFLY December 2007 - Disclaimer

ORBIFLY MET'MAP TEAM :

Programming & Development : Alexandra Zaïnal
Concept & Development : Baudouin d'Aumeries
Co-Development & Prog : Marc-Olivier Méhu
Technical & hardware support : Manuel Goepfert

Contact : metmap@orbifly.com




SOURCES & CREDITS :

   NOAA